Time;durP1;ratioP1;P1;durP2;ratioP2;P2;SDS_P1;SDS_P2;PMS_P1;PMS_P2;Temp;Humidity;BMP_temperature;BMP_pressure;BME280_temperature;BME280_humidity;BME280_pressure;Samples;Min_cycle;Max_cycle;Signal;HPM_P1;HPM_P2
2021/09/08 00:01:29;;;;;;;;;;;;;;;;;;4992221;28;20003;-68
2021/09/08 00:03:56;;;;;;;;;;;;;;;;;;4992561;28;20374;-69
2021/09/08 00:06:24;;;;;;;;;;;;;;;;;;4992826;28;20003;-68
2021/09/08 00:08:51;;;;;;;;;;;;;;;;;;4994278;28;20143;-68
2021/09/08 00:11:17;;;;;;;;;;;;;;;;;;4997728;28;20006;-68
2021/09/08 00:13:44;;;;;;;;;;;;;;;;;;4999178;28;20006;-68
2021/09/08 00:16:11;;;;;;;;;;;;;;;;;;4993959;28;20003;-68
2021/09/08 00:18:38;;;;;;;;;;;;;;;;;;4993010;28;20029;-68
2021/09/08 00:21:05;;;;;;;;;;;;;;;;;;4992942;28;20006;-69
2021/09/08 00:23:32;;;;;;;;;;;;;;;;;;4992659;28;20518;-69
2021/09/08 00:25:59;;;;;;;;;;;;;;;;;;4992711;28;20019;-69
2021/09/08 00:28:26;;;;;;;;;;;;;;;;;;4992460;28;20025;-68
2021/09/08 00:30:53;;;;;;;;;;;;;;;;;;4992466;28;20002;-69
2021/09/08 00:33:20;;;;;;;;;;;;;;;;;;4992886;28;20022;-69
2021/09/08 00:35:48;;;;;;;;;;;;;;;;;;4992397;28;20032;-69
2021/09/08 00:38:15;;;;;;;;;;;;;;;;;;4992501;28;20006;-68
2021/09/08 00:40:42;;;;;;;;;;;;;;;;;;4992126;28;20002;-69
2021/09/08 00:43:09;;;;;;;;;;;;;;;;;;4992492;28;20386;-68
2021/09/08 00:45:36;;;;;;;;;;;;;;;;;;4995688;28;20019;-69
2021/09/08 00:48:03;;;;;;;;;;;;;;;;;;4996198;28;20009;-69
2021/09/08 00:50:30;;;;;;;;;;;;;;;;;;4995988;28;20024;-68
2021/09/08 00:52:56;;;;;;;;;;;;;;;;;;4995533;28;20023;-69
2021/09/08 00:55:25;;;;;;;;;;;;;;;;;;4996149;28;20010;-67
2021/09/08 00:57:52;;;;;;;;;;;;;;;;;;4996078;28;20007;-68
2021/09/08 01:00:19;;;;;;;;;;;;;;;;;;4995654;28;20010;-68
2021/09/08 01:02:46;;;;;;;;;;;;;;;;;;4996102;28;20019;-68
2021/09/08 01:05:13;;;;;;;;;;;;;;;;;;4996146;28;20481;-68
2021/09/08 01:07:40;;;;;;;;;;;;;;;;;;4996781;28;20009;-68
2021/09/08 01:10:07;;;;;;;;;;;;;;;;;;4996626;28;20002;-69
2021/09/08 01:12:34;;;;;;;;;;;;;;;;;;4995673;28;20025;-68
2021/09/08 01:15:01;;;;;;;;;;;;;;;;;;4995791;28;20003;-68
2021/09/08 01:17:28;;;;;;;;;;;;;;;;;;4995445;28;20454;-68
2021/09/08 01:19:54;;;;;;;;;;;;;;;;;;4995521;28;20002;-68
2021/09/08 01:22:21;;;;;;;;;;;;;;;;;;4995545;28;20018;-69
2021/09/08 01:24:48;;;;;;;;;;;;;;;;;;4995286;28;20026;-68
2021/09/08 01:27:15;;;;;;;;;;;;;;;;;;4995594;28;20003;-69
2021/09/08 01:29:42;;;;;;;;;;;;;;;;;;4995353;28;20388;-68
2021/09/08 01:32:09;;;;;;;;;;;;;;;;;;4995135;28;20018;-69
2021/09/08 01:34:36;;;;;;;;;;;;;;;;;;4995104;28;20019;-68
2021/09/08 01:37:03;;;;;;;;;;;;;;;;;;4994842;28;20003;-68
2021/09/08 01:39:30;;;;;;;;;;;;;;;;;;4995412;28;20009;-66
2021/09/08 01:41:57;;;;;;;;;;;;;;;;;;4995066;28;20390;-66
2021/09/08 01:44:24;;;;;;;;;;;;;;;;;;4995180;28;20015;-66
2021/09/08 01:46:50;;;;;;;;;;;;;;;;;;4995255;28;20003;-66
2021/09/08 01:49:17;;;;;;;;;;;;;;;;;;4995027;28;20358;-66
2021/09/08 01:51:44;;;;;;;;;;;;;;;;;;4994462;28;20029;-65
2021/09/08 01:54:11;;;;;;;;;;;;;;;;;;4995401;28;20002;-66
2021/09/08 01:56:38;;;;;;;;;;;;;;;;;;4994746;28;20009;-66
2021/09/08 01:59:05;;;;;;;;;;;;;;;;;;4995151;28;20003;-66
2021/09/08 02:01:32;;;;;;;;;;;;;;;;;;4994660;28;20386;-65
2021/09/08 02:03:59;;;;;;;;;;;;;;;;;;4994972;28;20006;-65
2021/09/08 02:06:26;;;;;;;;;;;;;;;;;;4994459;28;20025;-66
2021/09/08 02:08:53;;;;;;;;;;;;;;;;;;4994617;28;20002;-65
2021/09/08 02:11:19;;;;;;;;;;;;;;;;;;4994790;28;20009;-66
2021/09/08 02:13:46;;;;;;;;;;;;;;;;;;4994730;28;20386;-66
2021/09/08 02:16:15;;;;;;;;;;;;;;;;;;4994646;28;20002;-66
2021/09/08 02:18:42;;;;;;;;;;;;;;;;;;4994463;28;20472;-66
2021/09/08 02:21:09;;;;;;;;;;;;;;;;;;4994634;28;20002;-66
2021/09/08 02:23:36;;;;;;;;;;;;;;;;;;4994610;28;20129;-69
2021/09/08 02:26:03;;;;;;;;;;;;;;;;;;4994460;28;20019;-66
2021/09/08 02:28:30;;;;;;;;;;;;;;;;;;4994565;28;20010;-66
2021/09/08 02:30:57;;;;;;;;;;;;;;;;;;4994277;28;20382;-66
2021/09/08 02:33:24;;;;;;;;;;;;;;;;;;4994631;28;20018;-66
2021/09/08 02:35:51;;;;;;;;;;;;;;;;;;4994168;28;20002;-66
2021/09/08 02:38:18;;;;;;;;;;;;;;;;;;4994144;28;20003;-66
2021/09/08 02:40:44;;;;;;;;;;;;;;;;;;4993825;28;20002;-66
2021/09/08 02:43:11;;;;;;;;;;;;;;;;;;4993862;28;20018;-66
2021/09/08 02:45:38;;;;;;;;;;;;;;;;;;4993907;28;20014;-65
2021/09/08 02:48:05;;;;;;;;;;;;;;;;;;4994031;28;20366;-66
2021/09/08 02:50:32;;;;;;;;;;;;;;;;;;4993855;28;20009;-66
2021/09/08 02:52:59;;;;;;;;;;;;;;;;;;4993684;28;20022;-66
2021/09/08 02:55:26;;;;;;;;;;;;;;;;;;4993784;28;20010;-66
2021/09/08 02:57:53;;;;;;;;;;;;;;;;;;4993774;28;20003;-66
2021/09/08 03:00:20;;;;;;;;;;;;;;;;;;4993461;28;20347;-66
2021/09/08 03:02:47;;;;;;;;;;;;;;;;;;4993759;28;20026;-66
2021/09/08 03:05:13;;;;;;;;;;;;;;;;;;4993738;28;20018;-67
2021/09/08 03:07:40;;;;;;;;;;;;;;;;;;4993127;28;20009;-66
2021/09/08 03:10:07;;;;;;;;;;;;;;;;;;4993385;28;20002;-66
2021/09/08 03:12:34;;;;;;;;;;;;;;;;;;4993863;28;20378;-66
2021/09/08 03:15:01;;;;;;;;;;;;;;;;;;4993763;28;20002;-66
2021/09/08 03:17:28;;;;;;;;;;;;;;;;;;4993739;28;20002;-65
2021/09/08 03:19:55;;;;;;;;;;;;;;;;;;4993503;28;20002;-66
2021/09/08 03:22:22;;;;;;;;;;;;;;;;;;4993358;28;20025;-66
2021/09/08 03:24:49;;;;;;;;;;;;;;;;;;4993944;28;20015;-66
2021/09/08 03:27:16;;;;;;;;;;;;;;;;;;4993981;28;20009;-66
2021/09/08 03:29:43;;;;;;;;;;;;;;;;;;4995572;28;20003;-66
2021/09/08 03:32:09;;;;;;;;;;;;;;;;;;4996099;28;20026;-66
2021/09/08 03:34:36;;;;;;;;;;;;;;;;;;4995276;28;20006;-65
2021/09/08 03:37:03;;;;;;;;;;;;;;;;;;4994928;28;20344;-66
2021/09/08 03:39:30;;;;;;;;;;;;;;;;;;4995338;28;20003;-66
2021/09/08 03:41:57;;;;;;;;;;;;;;;;;;4992905;28;20023;-66
2021/09/08 03:44:24;;;;;;;;;;;;;;;;;;4993113;28;20009;-66
2021/09/08 03:46:51;;;;;;;;;;;;;;;;;;4993086;28;20018;-66
2021/09/08 03:49:18;;;;;;;;;;;;;;;;;;4992834;28;20458;-66
2021/09/08 03:51:45;;;;;;;;;;;;;;;;;;4992936;28;20023;-66
2021/09/08 03:54:12;;;;;;;;;;;;;;;;;;4993096;28;20370;-66
2021/09/08 03:56:38;;;;;;;;;;;;;;;;;;4992790;28;20010;-66
2021/09/08 03:59:05;;;;;;;;;;;;;;;;;;4992981;28;20003;-66
2021/09/08 04:01:32;;;;;;;;;;;;;;;;;;4992370;28;20010;-66
2021/09/08 04:03:59;;;;;;;;;;;;;;;;;;4993087;28;20002;-66
2021/09/08 04:06:26;;;;;;;;;;;;;;;;;;4992688;28;20398;-65
2021/09/08 04:08:53;;;;;;;;;;;;;;;;;;4992963;28;20003;-66
2021/09/08 04:11:20;;;;;;;;;;;;;;;;;;4992374;28;20002;-66
2021/09/08 04:13:47;;;;;;;;;;;;;;;;;;4992425;28;20014;-66
2021/09/08 04:16:14;;;;;;;;;;;;;;;;;;4992862;28;20003;-66
2021/09/08 04:18:41;;;;;;;;;;;;;;;;;;4992727;28;20370;-66
2021/09/08 04:21:07;;;;;;;;;;;;;;;;;;4996660;28;20007;-66
2021/09/08 04:23:34;;;;;;;;;;;;;;;;;;4996465;28;20026;-66
2021/09/08 04:26:01;;;;;;;;;;;;;;;;;;4996307;28;20014;-66
2021/09/08 04:28:28;;;;;;;;;;;;;;;;;;4996631;28;20009;-66
2021/09/08 04:30:55;;;;;;;;;;;;;;;;;;4996462;28;20355;-66
2021/09/08 04:33:22;;;;;;;;;;;;;;;;;;4996585;28;20026;-66
2021/09/08 04:35:49;;;;;;;;;;;;;;;;;;4996719;28;20002;-66
2021/09/08 04:38:16;;;;;;;;;;;;;;;;;;4996093;28;20091;-66
2021/09/08 04:40:44;;;;;;;;;;;;;;;;;;4996418;28;20007;-66
2021/09/08 04:43:11;;;;;;;;;;;;;;;;;;4996406;28;20119;-66
2021/09/08 04:45:37;;;;;;;;;;;;;;;;;;4996179;28;20023;-66
2021/09/08 04:48:04;;;;;;;;;;;;;;;;;;4996196;28;20002;-66
2021/09/08 04:50:31;;;;;;;;;;;;;;;;;;4996052;28;20376;-66
2021/09/08 04:52:58;;;;;;;;;;;;;;;;;;4996006;28;20027;-66
2021/09/08 04:55:25;;;;;;;;;;;;;;;;;;4996256;28;20014;-66
2021/09/08 04:57:52;;;;;;;;;;;;;;;;;;4995816;28;20002;-66
2021/09/08 05:00:19;;;;;;;;;;;;;;;;;;4996007;28;20006;-66
2021/09/08 05:02:46;;;;;;;;;;;;;;;;;;4996316;28;20134;-66
2021/09/08 05:05:13;;;;;;;;;;;;;;;;;;4995849;28;20004;-66
2021/09/08 05:07:40;;;;;;;;;;;;;;;;;;4995381;28;20010;-66
2021/09/08 05:10:07;;;;;;;;;;;;;;;;;;4995745;28;20458;-66
2021/09/08 05:12:34;;;;;;;;;;;;;;;;;;4995803;28;20019;-66
2021/09/08 05:15:01;;;;;;;;;;;;;;;;;;4996707;28;20470;-66
2021/09/08 05:17:28;;;;;;;;;;;;;;;;;;4997633;28;20006;-66
2021/09/08 05:19:55;;;;;;;;;;;;;;;;;;4996632;28;20010;-66
2021/09/08 05:22:22;;;;;;;;;;;;;;;;;;4995339;28;20486;-66
2021/09/08 05:24:49;;;;;;;;;;;;;;;;;;4995930;28;20013;-65
2021/09/08 05:27:16;;;;;;;;;;;;;;;;;;4995911;28;20019;-66
2021/09/08 05:29:43;;;;;;;;;;;;;;;;;;4995190;28;20002;-65
2021/09/08 05:32:10;;;;;;;;;;;;;;;;;;4995270;28;20019;-66
2021/09/08 05:34:37;;;;;;;;;;;;;;;;;;4995457;28;20370;-66
2021/09/08 05:37:04;;;;;;;;;;;;;;;;;;4995439;28;20010;-66
2021/09/08 05:39:30;;;;;;;;;;;;;;;;;;4995404;28;20002;-66
2021/09/08 05:41:57;;;;;;;;;;;;;;;;;;4994924;28;20025;-66
2021/09/08 05:44:24;;;;;;;;;;;;;;;;;;4995291;28;20003;-66
2021/09/08 05:46:51;;;;;;;;;;;;;;;;;;4995489;28;20374;-65
2021/09/08 05:49:18;;;;;;;;;;;;;;;;;;4995668;28;20006;-69
2021/09/08 05:51:45;;;;;;;;;;;;;;;;;;4994964;28;20026;-66
2021/09/08 05:54:12;;;;;;;;;;;;;;;;;;4995799;28;19998;-66
2021/09/08 05:56:39;;;;;;;;;;;;;;;;;;4995091;28;20009;-65
2021/09/08 05:59:06;;;;;;;;;;;;;;;;;;4995707;28;20006;-66
2021/09/08 06:01:33;;;;;;;;;;;;;;;;;;4994671;28;20010;-65
2021/09/08 06:03:59;;;;;;;;;;;;;;;;;;4995135;28;20007;-67
2021/09/08 06:06:26;;;;;;;;;;;;;;;;;;4994972;28;20382;-66
2021/09/08 06:08:53;;;;;;;;;;;;;;;;;;4994609;28;20014;-64
2021/09/08 06:11:20;;;;;;;;;;;;;;;;;;4994747;28;20002;-66
2021/09/08 06:13:47;;;;;;;;;;;;;;;;;;4994920;28;20009;-67
2021/09/08 06:16:14;;;;;;;;;;;;;;;;;;4994680;28;20377;-67
2021/09/08 06:18:41;;;;;;;;;;;;;;;;;;4994720;28;20009;-67
2021/09/08 06:21:08;;;;;;;;;;;;;;;;;;4994538;28;20002;-68
2021/09/08 06:23:35;;;;;;;;;;;;;;;;;;4994696;28;20026;-67
2021/09/08 06:26:02;;;;;;;;;;;;;;;;;;4994751;28;20014;-66
2021/09/08 06:28:30;;;;;;;;;;;;;;;;;;4994234;28;20374;-67
2021/09/08 06:30:56;;;;;;;;;;;;;;;;;;4994265;28;20003;-67
2021/09/08 06:33:23;;;;;;;;;;;;;;;;;;4994025;28;20521;-67
2021/09/08 06:35:50;;;;;;;;;;;;;;;;;;4994324;28;20002;-68
2021/09/08 06:38:17;;;;;;;;;;;;;;;;;;4994251;28;20008;-67
2021/09/08 06:40:44;;;;;;;;;;;;;;;;;;4993956;28;20390;-67
2021/09/08 06:43:11;;;;;;;;;;;;;;;;;;4993321;28;20025;-67
2021/09/08 06:45:38;;;;;;;;;;;;;;;;;;4994306;28;20006;-67
2021/09/08 06:48:05;;;;;;;;;;;;;;;;;;4993970;28;20009;-67
2021/09/08 06:50:32;;;;;;;;;;;;;;;;;;4993927;28;20003;-67
2021/09/08 06:52:59;;;;;;;;;;;;;;;;;;4993580;28;20027;-67
2021/09/08 06:55:26;;;;;;;;;;;;;;;;;;4993976;28;20009;-67
2021/09/08 06:57:53;;;;;;;;;;;;;;;;;;4994160;28;20008;-68
2021/09/08 07:00:20;;;;;;;;;;;;;;;;;;4993640;28;20003;-67
2021/09/08 07:02:46;;;;;;;;;;;;;;;;;;4993678;28;20243;-67
2021/09/08 07:05:13;;;;;;;;;;;;;;;;;;4993920;28;20374;-67
2021/09/08 07:07:40;;;;;;;;;;;;;;;;;;4993828;28;20022;-67
2021/09/08 07:10:07;;;;;;;;;;;;;;;;;;4995416;28;20003;-69
2021/09/08 07:12:34;;;;;;;;;;;;;;;;;;4995597;28;20019;-67
2021/09/08 07:15:01;;;;;;;;;;;;;;;;;;4994980;28;20002;-69
2021/09/08 07:17:28;;;;;;;;;;;;;;;;;;4995579;28;20105;-67
2021/09/08 07:19:55;;;;;;;;;;;;;;;;;;4995587;28;20002;-67
2021/09/08 07:22:22;;;;;;;;;;;;;;;;;;4993845;28;20019;-68
2021/09/08 07:24:49;;;;;;;;;;;;;;;;;;4993649;28;20006;-67
2021/09/08 07:27:16;;;;;;;;;;;;;;;;;;4993564;28;20391;-68
2021/09/08 07:29:42;;;;;;;;;;;;;;;;;;4993875;28;20002;-67
2021/09/08 07:32:09;;;;;;;;;;;;;;;;;;4993619;28;20025;-68
2021/09/08 07:34:37;;;;;;;;;;;;;;;;;;4993912;28;20007;-67
2021/09/08 07:37:04;;;;;;;;;;;;;;;;;;4993709;28;20002;-67
2021/09/08 07:39:31;;;;;;;;;;;;;;;;;;4993508;28;20003;-67
2021/09/08 07:41:59;;;;;;;;;;;;;;;;;;4993051;28;20026;-67
2021/09/08 07:44:25;;;;;;;;;;;;;;;;;;4993299;28;20454;-67
2021/09/08 07:46:52;;;;;;;;;;;;;;;;;;4992854;28;20019;-67
2021/09/08 07:49:19;;;;;;;;;;;;;;;;;;4993641;28;20010;-67
2021/09/08 07:51:46;;;;;;;;;;;;;;;;;;4992580;28;20022;-67
2021/09/08 07:54:13;;;;;;;;;;;;;;;;;;4993623;28;20002;-67
2021/09/08 07:56:40;;;;;;;;;;;;;;;;;;4993611;28;20374;-68
2021/09/08 07:59:07;;;;;;;;;;;;;;;;;;4993413;28;20003;-67
2021/09/08 08:01:34;;;;;;;;;;;;;;;;;;4993621;28;20010;-67
2021/09/08 08:04:01;;;;;;;;;;;;;;;;;;4993765;28;20003;-68
2021/09/08 08:06:28;;;;;;;;;;;;;;;;;;4993235;28;20160;-67
2021/09/08 08:08:55;;;;;;;;;;;;;;;;;;4993413;28;20009;-67
2021/09/08 08:11:22;;;;;;;;;;;;;;;;;;4993070;28;20393;-68
2021/09/08 08:13:49;;;;;;;;;;;;;;;;;;4993754;28;20006;-68
2021/09/08 08:16:16;;;;;;;;;;;;;;;;;;4993606;28;20002;-68
2021/09/08 08:18:43;;;;;;;;;;;;;;;;;;4993300;28;20003;-67
2021/09/08 08:21:10;;;;;;;;;;;;;;;;;;4993463;28;20009;-68
2021/09/08 08:23:37;;;;;;;;;;;;;;;;;;4993148;28;20041;-68
2021/09/08 08:26:04;;;;;;;;;;;;;;;;;;4993626;28;20002;-67
2021/09/08 08:28:31;;;;;;;;;;;;;;;;;;4993401;28;20022;-68
2021/09/08 08:30:58;;;;;;;;;;;;;;;;;;4992815;28;20533;-67
2021/09/08 08:33:25;;;;;;;;;;;;;;;;;;4993044;28;20018;-67
2021/09/08 08:35:52;;;;;;;;;;;;;;;;;;4992875;28;20003;-68
2021/09/08 08:38:19;;;;;;;;;;;;;;;;;;4992977;28;20006;-67
2021/09/08 08:40:46;;;;;;;;;;;;;;;;;;4993118;28;20003;-68
2021/09/08 08:43:13;;;;;;;;;;;;;;;;;;4992788;28;20018;-68
2021/09/08 08:45:40;;;;;;;;;;;;;;;;;;4993112;28;20009;-67
2021/09/08 08:48:07;;;;;;;;;;;;;;;;;;4992620;28;20018;-69
2021/09/08 08:50:34;;;;;;;;;;;;;;;;;;4992408;28;20474;-67
2021/09/08 08:53:01;;;;;;;;;;;;;;;;;;4992398;28;20023;-67
2021/09/08 08:55:28;;;;;;;;;;;;;;;;;;4992792;28;20025;-67
2021/09/08 08:57:55;;;;;;;;;;;;;;;;;;4992315;28;20003;-69
2021/09/08 09:00:22;;;;;;;;;;;;;;;;;;4992583;28;20010;-67
2021/09/08 09:02:49;;;;;;;;;;;;;;;;;;4992618;28;20022;-67
2021/09/08 09:05:16;;;;;;;;;;;;;;;;;;4994169;28;20013;-67
2021/09/08 09:07:43;;;;;;;;;;;;;;;;;;4996851;28;20014;-67
2021/09/08 09:10:10;;;;;;;;;;;;;;;;;;4996415;28;20496;-68
2021/09/08 09:12:37;;;;;;;;;;;;;;;;;;4996740;28;20023;-67
2021/09/08 09:15:04;;;;;;;;;;;;;;;;;;4996968;28;20347;-68
2021/09/08 09:17:31;;;;;;;;;;;;;;;;;;4996432;28;20013;-67
2021/09/08 09:19:58;;;;;;;;;;;;;;;;;;4996468;28;20015;-67
2021/09/08 09:22:25;;;;;;;;;;;;;;;;;;4995731;28;20506;-67
2021/09/08 09:24:52;;;;;;;;;;;;;;;;;;4996338;28;20009;-67
2021/09/08 09:27:19;;;;;;;;;;;;;;;;;;4996542;28;20018;-67
2021/09/08 09:29:46;;;;;;;;;;;;;;;;;;4996138;28;20010;-68
2021/09/08 09:32:13;;;;;;;;;;;;;;;;;;4995815;28;20018;-67
2021/09/08 09:34:40;;;;;;;;;;;;;;;;;;4996288;28;20447;-68
2021/09/08 09:37:06;;;;;;;;;;;;;;;;;;4996051;28;20014;-67
2021/09/08 09:39:33;;;;;;;;;;;;;;;;;;4995874;28;20009;-67
2021/09/08 09:42:00;;;;;;;;;;;;;;;;;;4995494;28;20018;-68
2021/09/08 09:44:27;;;;;;;;;;;;;;;;;;4995836;28;20009;-67
2021/09/08 09:46:54;;;;;;;;;;;;;;;;;;4995322;28;20421;-68
2021/09/08 09:49:21;;;;;;;;;;;;;;;;;;4996006;28;20002;-67
2021/09/08 09:51:48;;;;;;;;;;;;;;;;;;4995630;28;20218;-67
2021/09/08 09:54:18;;;;;;;;;;;;;;;;;;4996112;28;20002;-67
2021/09/08 09:56:45;;;;;;;;;;;;;;;;;;4995717;28;20002;-68
2021/09/08 09:59:12;;;;;;;;;;;;;;;;;;4995826;28;20010;-68
2021/09/08 10:01:39;;;;;;;;;;;;;;;;;;4995322;28;20002;-68
2021/09/08 10:04:05;;;;;;;;;;;;;;;;;;4995558;28;20010;-67
2021/09/08 10:06:32;;;;;;;;;;;;;;;;;;4995486;28;20002;-68
2021/09/08 10:08:59;;;;;;;;;;;;;;;;;;4995762;28;20007;-67
2021/09/08 10:11:31;;;;;;;;;;;;;;;;;;4995236;28;20008;-67
2021/09/08 10:13:58;;;;;;;;;;;;;;;;;;4995797;28;20431;-68
2021/09/08 10:16:25;;;;;;;;;;;;;;;;;;4994608;28;20010;-67
2021/09/08 10:18:52;;;;;;;;;;;;;;;;;;4995593;28;20002;-67
2021/09/08 10:21:20;;;;;;;;;;;;;;;;;;4995246;28;20017;-68
2021/09/08 10:23:47;;;;;;;;;;;;;;;;;;4995301;28;20002;-67
2021/09/08 10:26:14;;;;;;;;;;;;;;;;;;4994911;28;20002;-68
2021/09/08 10:28:41;;;;;;;;;;;;;;;;;;4995100;28;20482;-67
2021/09/08 10:31:08;;;;;;;;;;;;;;;;;;4994971;28;20003;-68
2021/09/08 10:33:34;;;;;;;;;;;;;;;;;;4994977;28;20019;-67
2021/09/08 10:36:01;;;;;;;;;;;;;;;;;;4995142;28;20003;-68
2021/09/08 10:38:29;;;;;;;;;;;;;;;;;;4994888;28;20002;-67
2021/09/08 10:40:56;;;;;;;;;;;;;;;;;;4994637;28;20025;-67
2021/09/08 10:43:23;;;;;;;;;;;;;;;;;;4994416;28;20390;-68
2021/09/08 10:45:50;;;;;;;;;;;;;;;;;;4994652;28;20014;-67
2021/09/08 10:48:17;;;;;;;;;;;;;;;;;;4993807;28;20081;-69
2021/09/08 10:50:44;;;;;;;;;;;;;;;;;;4993956;28;20002;-67
2021/09/08 10:53:11;;;;;;;;;;;;;;;;;;4993946;28;20649;-68
2021/09/08 10:55:38;;;;;;;;;;;;;;;;;;4994682;28;20003;-67
2021/09/08 10:58:05;;;;;;;;;;;;;;;;;;4995755;28;20009;-67
2021/09/08 11:00:34;;;;;;;;;;;;;;;;;;4994516;28;20021;-68
2021/09/08 11:03:01;;;;;;;;;;;;;;;;;;4994140;28;20025;-67
2021/09/08 11:05:28;;;;;;;;;;;;;;;;;;4994028;28;20002;-68
2021/09/08 11:07:54;;;;;;;;;;;;;;;;;;4993614;28;20025;-67
2021/09/08 11:10:21;;;;;;;;;;;;;;;;;;4993834;28;20002;-67
2021/09/08 11:12:48;;;;;;;;;;;;;;;;;;4993606;28;20018;-68
2021/09/08 11:15:15;;;;;;;;;;;;;;;;;;4993905;28;20002;-68
2021/09/08 11:17:42;;;;;;;;;;;;;;;;;;4993779;28;20009;-68
2021/09/08 11:20:09;;;;;;;;;;;;;;;;;;4993984;28;20366;-69
2021/09/08 11:22:36;;;;;;;;;;;;;;;;;;4993538;28;20026;-69
2021/09/08 11:25:03;;;;;;;;;;;;;;;;;;4993995;28;20003;-65
2021/09/08 11:27:30;;;;;;;;;;;;;;;;;;4993255;28;20026;-67
2021/09/08 11:29:57;;;;;;;;;;;;;;;;;;4993892;28;20003;-68
2021/09/08 11:32:24;;;;;;;;;;;;;;;;;;4993627;28;20386;-67
2021/09/08 11:34:51;;;;;;;;;;;;;;;;;;4993682;28;20006;-68
2021/09/08 11:37:17;;;;;;;;;;;;;;;;;;4993090;28;20009;-67
2021/09/08 11:39:44;;;;;;;;;;;;;;;;;;4993980;28;20006;-68
2021/09/08 11:42:13;;;;;;;;;;;;;;;;;;4993668;28;20019;-68
2021/09/08 11:44:40;;;;;;;;;;;;;;;;;;4993144;28;20059;-67
2021/09/08 11:47:07;;;;;;;;;;;;;;;;;;4993355;28;20049;-68
2021/09/08 11:49:34;;;;;;;;;;;;;;;;;;4993557;28;20374;-68
2021/09/08 11:52:01;;;;;;;;;;;;;;;;;;4993115;28;20441;-67
2021/09/08 11:54:29;;;;;;;;;;;;;;;;;;4994005;28;19999;-68
2021/09/08 11:56:56;;;;;;;;;;;;;;;;;;4993251;28;20466;-67
2021/09/08 11:59:23;;;;;;;;;;;;;;;;;;4993923;28;20009;-67
2021/09/08 12:01:50;;;;;;;;;;;;;;;;;;4993233;28;20018;-67
2021/09/08 12:04:17;;;;;;;;;;;;;;;;;;4993426;28;20010;-69
2021/09/08 12:06:44;;;;;;;;;;;;;;;;;;4993627;28;20002;-67
2021/09/08 12:09:11;;;;;;;;;;;;;;;;;;4993127;28;20525;-67
2021/09/08 12:11:38;;;;;;;;;;;;;;;;;;4993442;28;20542;-68
2021/09/08 12:14:05;;;;;;;;;;;;;;;;;;4993126;28;20003;-68
2021/09/08 12:16:32;;;;;;;;;;;;;;;;;;4993061;28;20010;-68
2021/09/08 12:18:59;;;;;;;;;;;;;;;;;;4992874;28;20011;-68
2021/09/08 12:21:26;;;;;;;;;;;;;;;;;;4992545;28;20010;-68
2021/09/08 12:23:53;;;;;;;;;;;;;;;;;;4992789;28;20003;-69
2021/09/08 12:26:20;;;;;;;;;;;;;;;;;;4992680;28;20502;-68
2021/09/08 12:28:47;;;;;;;;;;;;;;;;;;4992414;28;20025;-68
2021/09/08 12:31:14;;;;;;;;;;;;;;;;;;4992673;28;20003;-68
2021/09/08 12:33:41;;;;;;;;;;;;;;;;;;4992735;28;20402;-68
2021/09/08 12:36:08;;;;;;;;;;;;;;;;;;4992534;28;20002;-68
2021/09/08 12:38:35;;;;;;;;;;;;;;;;;;4992651;28;20009;-68
2021/09/08 12:41:02;;;;;;;;;;;;;;;;;;4994656;28;20045;-68
2021/09/08 12:43:29;;;;;;;;;;;;;;;;;;4996739;28;20019;-67
2021/09/08 12:45:56;;;;;;;;;;;;;;;;;;4996486;28;20013;-68
2021/09/08 12:48:22;;;;;;;;;;;;;;;;;;4996590;28;20023;-68
2021/09/08 12:50:49;;;;;;;;;;;;;;;;;;4996467;28;20370;-68
2021/09/08 12:53:16;;;;;;;;;;;;;;;;;;4996070;28;20030;-68
2021/09/08 12:55:43;;;;;;;;;;;;;;;;;;4996688;28;20003;-68
2021/09/08 12:58:10;;;;;;;;;;;;;;;;;;4997239;28;20318;-68
2021/09/08 13:00:37;;;;;;;;;;;;;;;;;;4997588;28;20466;-68
2021/09/08 13:03:04;;;;;;;;;;;;;;;;;;4999221;28;20025;-69
2021/09/08 13:05:33;;;;;;;;;;;;;;;;;;4996983;28;20006;-68
2021/09/08 13:08:00;;;;;;;;;;;;;;;;;;4996114;28;20139;-68
2021/09/08 13:10:27;;;;;;;;;;;;;;;;;;4996176;28;20009;-68
2021/09/08 13:12:54;;;;;;;;;;;;;;;;;;4996374;28;20019;-68
2021/09/08 13:15:21;;;;;;;;;;;;;;;;;;4996507;28;20387;-68
2021/09/08 13:17:48;;;;;;;;;;;;;;;;;;4996264;28;20003;-68
2021/09/08 13:20:15;;;;;;;;;;;;;;;;;;4996438;28;20002;-68
2021/09/08 13:22:42;;;;;;;;;;;;;;;;;;4996517;28;20025;-68
2021/09/08 13:25:09;;;;;;;;;;;;;;;;;;4996082;28;20009;-68
2021/09/08 13:27:37;;;;;;;;;;;;;;;;;;4995603;28;20006;-68
2021/09/08 13:30:04;;;;;;;;;;;;;;;;;;4996456;28;20002;-69
2021/09/08 13:32:31;;;;;;;;;;;;;;;;;;4998929;28;20029;-67
2021/09/08 13:34:59;;;;;;;;;;;;;;;;;;4998679;28;20003;-66
2021/09/08 13:37:26;;;;;;;;;;;;;;;;;;4998877;28;20006;-66
2021/09/08 13:39:52;;;;;;;;;;;;;;;;;;4999510;28;20366;-65
2021/09/08 13:42:19;;;;;;;;;;;;;;;;;;4998128;28;20023;-66
2021/09/08 13:44:47;;;;;;;;;;;;;;;;;;4995852;28;20010;-66
2021/09/08 13:47:14;;;;;;;;;;;;;;;;;;4996180;28;20455;-66
2021/09/08 13:49:40;;;;;;;;;;;;;;;;;;4996571;28;20019;-66
2021/09/08 13:52:07;;;;;;;;;;;;;;;;;;4995871;28;20029;-66
2021/09/08 13:54:34;;;;;;;;;;;;;;;;;;4996447;28;20382;-66
2021/09/08 13:57:02;;;;;;;;;;;;;;;;;;4996643;28;20037;-65
2021/09/08 13:59:29;;;;;;;;;;;;;;;;;;4996532;28;20002;-67
2021/09/08 14:01:56;;;;;;;;;;;;;;;;;;4996382;28;20025;-65
2021/09/08 14:04:23;;;;;;;;;;;;;;;;;;4996031;28;20002;-65
2021/09/08 14:06:50;;;;;;;;;;;;;;;;;;4996286;28;20009;-66
2021/09/08 14:09:17;;;;;;;;;;;;;;;;;;4996010;28;20018;-65
2021/09/08 14:11:44;;;;;;;;;;;;;;;;;;4996094;28;20517;-66
2021/09/08 14:14:11;;;;;;;;;;;;;;;;;;4995677;28;20057;-67
2021/09/08 14:16:38;;;;;;;;;;;;;;;;;;4995053;28;20003;-67
2021/09/08 14:19:05;;;;;;;;;;;;;;;;;;4995580;28;20003;-68
2021/09/08 14:21:32;;;;;;;;;;;;;;;;;;4994840;28;20006;-69
2021/09/08 14:23:59;;;;;;;;;;;;;;;;;;4995282;28;20013;-67
2021/09/08 14:26:26;;;;;;;;;;;;;;;;;;4995432;28;20009;-68
2021/09/08 14:28:53;;;;;;;;;;;;;;;;;;4995174;28;20022;-67
2021/09/08 14:31:19;;;;;;;;;;;;;;;;;;4994879;28;20002;-67
2021/09/08 14:33:46;;;;;;;;;;;;;;;;;;4995230;28;20018;-67
2021/09/08 14:36:13;;;;;;;;;;;;;;;;;;4995165;28;20003;-67
2021/09/08 14:38:40;;;;;;;;;;;;;;;;;;4995334;28;20003;-68
2021/09/08 14:41:08;;;;;;;;;;;;;;;;;;4994910;28;20003;-67
2021/09/08 14:43:35;;;;;;;;;;;;;;;;;;4994645;28;20018;-68
2021/09/08 14:46:01;;;;;;;;;;;;;;;;;;4995127;28;20009;-68
2021/09/08 14:48:28;;;;;;;;;;;;;;;;;;4995046;28;20021;-68
2021/09/08 14:50:56;;;;;;;;;;;;;;;;;;4994524;28;20002;-67
2021/09/08 14:53:23;;;;;;;;;;;;;;;;;;4994496;28;20026;-68
2021/09/08 14:55:50;;;;;;;;;;;;;;;;;;4994902;28;20010;-68
2021/09/08 14:58:16;;;;;;;;;;;;;;;;;;4994768;28;20478;-68
2021/09/08 15:00:43;;;;;;;;;;;;;;;;;;4994576;28;20010;-67
2021/09/08 15:03:10;;;;;;;;;;;;;;;;;;4993938;28;20025;-67
2021/09/08 15:05:37;;;;;;;;;;;;;;;;;;4994449;28;20540;-67
2021/09/08 15:08:04;;;;;;;;;;;;;;;;;;4994618;28;20003;-67
2021/09/08 15:10:31;;;;;;;;;;;;;;;;;;4994330;28;20010;-67
2021/09/08 15:12:58;;;;;;;;;;;;;;;;;;4994576;28;20019;-67
2021/09/08 15:15:25;;;;;;;;;;;;;;;;;;4994115;28;20057;-68
2021/09/08 15:17:52;;;;;;;;;;;;;;;;;;4994329;28;20498;-67
2021/09/08 15:20:19;;;;;;;;;;;;;;;;;;4994262;28;20009;-69
2021/09/08 15:22:46;;;;;;;;;;;;;;;;;;4994322;28;20018;-68
2021/09/08 15:25:14;;;;;;;;;;;;;;;;;;4994364;28;20014;-68
2021/09/08 15:27:41;;;;;;;;;;;;;;;;;;4993772;28;20002;-67
2021/09/08 15:30:08;;;;;;;;;;;;;;;;;;4993713;28;20018;-68
2021/09/08 15:32:34;;;;;;;;;;;;;;;;;;4993710;28;20025;-68
2021/09/08 15:35:02;;;;;;;;;;;;;;;;;;4994483;28;20002;-68
2021/09/08 15:37:29;;;;;;;;;;;;;;;;;;4993990;28;20003;-68
2021/09/08 15:39:56;;;;;;;;;;;;;;;;;;4994183;28;20009;-67
2021/09/08 15:42:23;;;;;;;;;;;;;;;;;;4993597;28;20019;-67
2021/09/08 15:44:50;;;;;;;;;;;;;;;;;;4994126;28;20009;-67
2021/09/08 15:47:17;;;;;;;;;;;;;;;;;;4993497;28;20040;-67
2021/09/08 15:49:44;;;;;;;;;;;;;;;;;;4994018;28;20018;-68
2021/09/08 15:52:11;;;;;;;;;;;;;;;;;;4993705;28;20023;-67
2021/09/08 15:54:38;;;;;;;;;;;;;;;;;;4993719;28;20009;-68
2021/09/08 15:57:05;;;;;;;;;;;;;;;;;;4993862;28;20455;-67
2021/09/08 15:59:32;;;;;;;;;;;;;;;;;;4993761;28;20002;-69
2021/09/08 16:01:58;;;;;;;;;;;;;;;;;;4993853;28;20034;-67
2021/09/08 16:04:25;;;;;;;;;;;;;;;;;;4993842;28;20455;-67
2021/09/08 16:06:52;;;;;;;;;;;;;;;;;;4993190;28;20003;-68
2021/09/08 16:09:19;;;;;;;;;;;;;;;;;;4993536;28;20018;-67
2021/09/08 16:11:48;;;;;;;;;;;;;;;;;;4993052;28;20018;-69
2021/09/08 16:14:17;;;;;;;;;;;;;;;;;;4994092;28;20009;-67
2021/09/08 16:16:44;;;;;;;;;;;;;;;;;;4997578;28;20006;-68
2021/09/08 16:19:11;;;;;;;;;;;;;;;;;;4997941;28;20053;-67
2021/09/08 16:21:38;;;;;;;;;;;;;;;;;;4997578;28;20002;-69
2021/09/08 16:24:05;;;;;;;;;;;;;;;;;;4997342;28;20009;-67
2021/09/08 16:26:32;;;;;;;;;;;;;;;;;;4997262;28;20009;-67
2021/09/08 16:28:59;;;;;;;;;;;;;;;;;;4997476;28;20018;-67
2021/09/08 16:31:26;;;;;;;;;;;;;;;;;;4997438;28;20385;-67
2021/09/08 16:33:55;;;;;;;;;;;;;;;;;;4997281;28;20002;-67
2021/09/08 16:36:22;;;;;;;;;;;;;;;;;;4997371;28;20003;-66
2021/09/08 16:38:49;;;;;;;;;;;;;;;;;;4997025;28;20386;-67
2021/09/08 16:41:16;;;;;;;;;;;;;;;;;;4996928;28;20009;-66
2021/09/08 16:43:43;;;;;;;;;;;;;;;;;;4996913;28;20018;-68